Time;durP1;ratioP1;P1;durP2;ratioP2;P2;SDS_P1;SDS_P2;PMS_P1;PMS_P2;Temp;Humidity;BMP_temperature;BMP_pressure;BME280_temperature;BME280_humidity;BME280_pressure;Samples;Min_cycle;Max_cycle;Signal;HPM_P1;HPM_P2
2022/04/12 00:00:38;;;;;;;22.40;9.88;;;;;;;5.86;63.63;96159.25;5046393;28;20060;-75
2022/04/12 00:03:05;;;;;;;23.13;9.95;;;;;;;5.85;63.74;96157.63;5045427;28;20415;-77
2022/04/12 00:05:34;;;;;;;20.75;9.05;;;;;;;5.84;64.35;96151.41;5046584;28;20049;-76
2022/04/12 00:08:00;;;;;;;17.58;8.57;;;;;;;5.83;64.82;96149.81;5046111;28;20059;-77
2022/04/12 00:10:27;;;;;;;23.52;10.63;;;;;;;5.81;65.22;96146.59;5045311;28;20406;-76
2022/04/12 00:12:54;;;;;;;21.58;9.85;;;;;;;5.82;65.17;96153.59;5045630;28;20053;-76
2022/04/12 00:15:21;;;;;;;23.88;10.77;;;;;;;5.78;64.51;96155.28;5045175;28;20044;-77
2022/04/12 00:20:35;;;;;;;19.90;9.13;;;;;;;5.68;64.98;96148.13;5045181;28;20048;-76
2022/04/12 00:23:01;;;;;;;24.95;10.88;;;;;;;5.70;65.00;96150.53;5046244;28;20056;-77
2022/04/12 00:25:29;;;;;;;19.95;9.52;;;;;;;5.67;64.60;96156.53;5045335;28;20048;-76
2022/04/12 00:27:57;;;;;;;20.00;9.82;;;;;;;5.62;64.89;96151.19;5046044;28;20053;-76
2022/04/12 00:30:25;;;;;;;28.85;9.93;;;;;;;5.62;65.08;96148.47;5044868;28;20128;-76
2022/04/12 00:32:52;;;;;;;27.35;9.93;;;;;;;5.60;65.65;96139.88;5045429;28;20056;-76
2022/04/12 00:35:20;;;;;;;19.63;9.98;;;;;;;5.60;65.54;96145.28;5045675;28;20079;-76
2022/04/12 00:37:50;;;;;;;21.05;9.50;;;;;;;5.59;65.93;96143.69;5045048;28;20415;-77
2022/04/12 00:40:18;;;;;;;21.40;10.10;;;;;;;5.57;65.91;96135.03;5045596;28;20064;-77
2022/04/12 00:42:44;;;;;;;19.95;9.32;;;;;;;5.50;65.57;96136.22;5041828;28;20045;-76
2022/04/12 00:45:11;;;;;;;21.55;9.15;;;;;;;5.46;64.92;96140.59;5045339;28;20051;-76
2022/04/12 00:47:39;;;;;;;22.05;8.43;;;;;;;5.42;65.45;96146.84;5040416;28;20057;-76
2022/04/12 00:50:06;;;;;;;28.30;10.73;;;;;;;5.41;65.73;96151.44;5024728;28;20053;-77
2022/04/12 00:52:36;;;;;;;19.23;8.63;;;;;;;5.39;66.09;96145.53;5025266;28;20044;-77
2022/04/12 00:55:05;;;;;;;28.08;9.98;;;;;;;5.36;66.08;96154.22;5024532;28;20282;-76
2022/04/12 00:57:32;;;;;;;26.55;9.48;;;;;;;5.36;66.40;96156.91;5025009;28;20519;-77
2022/04/12 01:00:00;;;;;;;29.92;10.57;;;;;;;5.34;66.25;96153.72;5023942;28;20056;-76
2022/04/12 01:02:26;;;;;;;20.40;9.13;;;;;;;5.34;66.04;96150.22;5025129;28;20049;-76
2022/04/12 01:04:53;;;;;;;29.13;10.23;;;;;;;5.35;66.11;96154.50;5024818;28;20389;-77
2022/04/12 01:07:20;;;;;;;29.35;10.55;;;;;;;5.35;66.35;96158.00;5025080;28;20049;-77
2022/04/12 01:09:47;;;;;;;21.20;10.30;;;;;;;5.36;66.69;96156.91;5024939;28;20049;-76
2022/04/12 01:12:18;;;;;;;22.35;11.05;;;;;;;5.38;66.37;96148.53;5032711;28;20056;-76
2022/04/12 01:14:44;;;;;;;21.85;9.60;;;;;;;5.38;66.11;96160.16;5025323;28;20053;-76
2022/04/12 01:17:12;;;;;;;21.63;10.25;;;;;;;5.39;65.98;96148.25;5024451;28;20068;-77
2022/04/12 01:19:38;;;;;;;20.45;10.00;;;;;;;5.40;66.17;96139.03;5025314;28;20049;-78
2022/04/12 01:22:06;;;;;;;20.02;9.85;;;;;;;5.42;66.49;96139.56;5023825;28;20463;-77
2022/04/12 01:24:34;;;;;;;21.15;10.85;;;;;;;5.38;66.66;96138.53;5025588;28;20053;-76
2022/04/12 01:27:01;;;;;;;19.70;10.27;;;;;;;5.35;66.71;96133.72;5024687;28;20083;-76
2022/04/12 01:29:34;;;;;;;20.98;10.05;;;;;;;5.33;66.84;96130.50;5025156;28;20049;-76
2022/04/12 01:32:00;;;;;;;20.27;10.15;;;;;;;5.32;66.55;96123.47;5024478;28;20107;-76
2022/04/12 01:34:27;;;;;;;20.83;10.80;;;;;;;5.32;66.98;96123.47;5024762;28;20627;-77
2022/04/12 01:36:54;;;;;;;20.55;10.30;;;;;;;5.33;67.28;96122.41;5025095;28;20396;-76
2022/04/12 01:39:21;;;;;;;25.38;11.05;;;;;;;5.36;67.54;96124.50;5024173;28;20557;-78
2022/04/12 01:41:49;;;;;;;19.73;9.30;;;;;;;5.37;67.28;96126.13;5021731;28;20077;-77
2022/04/12 01:44:15;;;;;;;23.77;11.50;;;;;;;5.37;67.28;96120.72;5023795;28;20054;-76
2022/04/12 01:46:42;;;;;;;25.63;10.93;;;;;;;5.36;67.23;96119.13;5025462;28;20049;-76
2022/04/12 01:49:08;;;;;;;23.52;10.77;;;;;;;5.34;66.70;96124.00;5024293;28;20052;-76
2022/04/12 01:51:35;;;;;;;22.52;10.35;;;;;;;5.36;66.85;96124.50;5025139;28;20049;-76
2022/04/12 01:54:01;;;;;;;22.02;10.68;;;;;;;5.36;66.73;96118.31;5024516;28;20630;-76
2022/04/12 01:56:28;;;;;;;23.48;10.40;;;;;;;5.36;66.87;96113.72;5024845;28;20045;-76
2022/04/12 01:58:57;;;;;;;20.60;10.23;;;;;;;5.33;66.61;96114.31;5024362;28;20060;-77
2022/04/12 02:01:23;;;;;;;20.73;10.35;;;;;;;5.32;66.13;96107.28;5024115;28;20045;-77
2022/04/12 02:03:49;;;;;;;18.55;9.82;;;;;;;5.29;66.02;96107.88;5024832;28;20053;-76
2022/04/12 02:06:16;;;;;;;23.27;11.15;;;;;;;5.25;66.24;96101.44;5024013;28;20041;-76
2022/04/12 02:08:43;;;;;;;21.38;9.20;;;;;;;5.24;66.32;96110.63;5027343;28;20061;-77
2022/04/12 02:11:10;;;;;;;22.23;10.80;;;;;;;5.26;66.35;96113.03;5029746;28;20048;-76
2022/04/12 02:13:36;;;;;;;25.42;10.15;;;;;;;5.28;66.77;96119.78;5029240;28;20061;-76
2022/04/12 02:16:05;;;;;;;30.55;10.05;;;;;;;5.24;66.90;96116.84;5026992;28;20053;-76
2022/04/12 02:18:31;;;;;;;23.85;10.13;;;;;;;5.25;66.45;96114.94;5028491;28;20053;-76
2022/04/12 02:20:58;;;;;;;18.77;9.05;;;;;;;5.25;66.37;96123.03;5027496;28;20076;-76
2022/04/12 02:23:24;;;;;;;21.08;9.85;;;;;;;5.24;66.65;96126.84;5028070;28;20049;-76
2022/04/12 02:25:51;;;;;;;21.05;9.52;;;;;;;5.24;66.90;96124.94;5028345;28;20049;-78
2022/04/12 02:28:17;;;;;;;24.42;10.48;;;;;;;5.25;66.69;96120.34;5027069;28;20050;-77
2022/04/12 02:30:44;;;;;;;28.63;10.65;;;;;;;5.24;67.05;96113.34;5027698;28;20084;-76
2022/04/12 02:33:12;;;;;;;23.17;10.35;;;;;;;5.19;66.88;96105.31;5027199;28;20073;-77
2022/04/12 02:35:39;;;;;;;18.52;9.13;;;;;;;5.19;66.92;96113.41;5028363;28;20050;-77
2022/04/12 02:38:05;;;;;;;22.00;10.02;;;;;;;5.15;67.01;96115.88;5026986;28;20056;-76
2022/04/12 02:40:32;;;;;;;27.20;10.90;;;;;;;5.15;67.40;96115.88;5027797;28;20499;-77
2022/04/12 02:42:58;;;;;;;26.52;9.88;;;;;;;5.16;66.92;96113.97;5030477;28;20053;-77
2022/04/12 02:45:25;;;;;;;28.80;10.23;;;;;;;5.16;66.96;96119.38;5027520;28;20049;-76
2022/04/12 02:47:51;;;;;;;23.90;9.95;;;;;;;5.15;66.66;96112.38;5027615;28;20045;-78
2022/04/12 02:50:19;;;;;;;19.95;9.70;;;;;;;5.11;67.20;96106.72;5026903;28;20053;-77
2022/04/12 02:52:45;;;;;;;28.33;11.02;;;;;;;5.10;67.25;96115.94;5027943;28;20049;-77
2022/04/12 02:55:12;;;;;;;26.55;10.60;;;;;;;5.09;67.45;96117.03;5026747;28;20053;-76
2022/04/12 02:57:38;;;;;;;21.20;9.45;;;;;;;5.06;67.08;96116.78;5028158;28;20057;-76
2022/04/12 03:00:06;;;;;;;23.35;10.02;;;;;;;5.02;66.82;96118.47;5026376;28;20045;-76
2022/04/12 03:02:33;;;;;;;26.42;10.43;;;;;;;5.00;67.20;96110.66;5027790;28;20519;-77
2022/04/12 03:04:59;;;;;;;24.55;9.52;;;;;;;5.00;66.93;96120.66;5027179;28;20045;-77
2022/04/12 03:07:27;;;;;;;29.48;10.50;;;;;;;4.98;67.14;96119.03;5027671;28;20049;-76
2022/04/12 03:09:54;;;;;;;25.35;9.80;;;;;;;4.96;67.26;96123.13;5026754;28;20053;-76
2022/04/12 03:12:20;;;;;;;26.73;10.55;;;;;;;4.92;67.33;96120.19;5029427;28;20053;-76
2022/04/12 03:14:46;;;;;;;24.85;9.55;;;;;;;4.91;67.56;96115.91;5027547;28;20054;-76
2022/04/12 03:17:13;;;;;;;26.52;11.38;;;;;;;4.89;67.86;96115.38;5027380;28;20045;-77
2022/04/12 03:19:39;;;;;;;22.40;10.30;;;;;;;4.88;68.33;96115.66;5026732;28;20053;-76
2022/04/12 03:22:06;;;;;;;23.80;10.98;;;;;;;4.87;68.71;96112.16;5025936;28;20049;-77
2022/04/12 03:24:34;;;;;;;21.90;9.50;;;;;;;4.86;68.95;96115.16;5027521;28;20110;-79
2022/04/12 03:27:00;;;;;;;26.33;10.18;;;;;;;4.86;68.98;96115.16;5026661;28;20045;-77
2022/04/12 03:29:27;;;;;;;27.05;10.07;;;;;;;4.84;69.00;96120.81;5027057;28;20403;-77
2022/04/12 03:31:54;;;;;;;20.85;9.73;;;;;;;4.84;68.86;96117.31;5026845;28;20530;-77
2022/04/12 03:34:21;;;;;;;22.08;9.75;;;;;;;4.82;68.92;96117.63;5026424;28;20053;-77
2022/04/12 03:36:47;;;;;;;24.25;10.00;;;;;;;4.82;68.94;96120.31;5026962;28;20053;-76
2022/04/12 03:39:17;;;;;;;31.77;13.45;;;;;;;4.80;68.64;96111.69;5024627;28;20042;-77
2022/04/12 03:41:46;;;;;;;20.13;9.88;;;;;;;4.78;68.31;96116.56;5043852;28;20052;-76
2022/04/12 03:44:12;;;;;;;20.73;10.20;;;;;;;4.76;68.33;96121.47;5045568;28;20048;-77
2022/04/12 03:46:39;;;;;;;20.90;9.85;;;;;;;4.76;68.23;96116.06;5029651;28;20053;-78
2022/04/12 03:49:05;;;;;;;20.38;9.68;;;;;;;4.77;68.19;96120.38;5025817;28;20061;-76
2022/04/12 03:51:32;;;;;;;24.05;11.10;;;;;;;4.76;68.19;96121.47;5026825;28;20057;-77
2022/04/12 03:53:59;;;;;;;20.33;9.85;;;;;;;4.76;68.79;96115.28;5026344;28;20088;-77
2022/04/12 03:56:25;;;;;;;22.83;10.27;;;;;;;4.76;68.98;96121.47;5026156;28;20041;-78
2022/04/12 03:58:53;;;;;;;18.92;9.38;;;;;;;4.78;68.45;96118.47;5026227;28;20061;-77
2022/04/12 04:01:20;;;;;;;23.42;10.52;;;;;;;4.77;68.77;96123.06;5025705;28;20080;-76
2022/04/12 04:03:46;;;;;;;28.63;11.02;;;;;;;4.78;69.00;96121.16;5026137;28;20426;-77
2022/04/12 04:06:13;;;;;;;24.63;11.00;;;;;;;4.75;69.28;96125.25;5025212;28;20045;-78
2022/04/12 04:08:39;;;;;;;29.73;11.30;;;;;;;4.65;68.83;96123.47;5026788;28;20057;-71
2022/04/12 04:11:05;;;;;;;26.42;11.00;;;;;;;4.63;68.96;96119.44;5024904;28;20073;-76
2022/04/12 04:13:36;;;;;;;24.98;10.13;;;;;;;4.63;69.12;96122.13;5024520;28;20052;-80
2022/04/12 04:16:04;;;;;;;25.88;10.07;;;;;;;4.61;68.99;96116.22;5028059;28;20856;-76
2022/04/12 04:18:30;;;;;;;22.23;10.00;;;;;;;4.55;68.97;96115.47;5026029;28;20230;-77
2022/04/12 04:20:57;;;;;;;21.52;9.98;;;;;;;4.51;68.85;96119.03;5025577;28;20053;-77
2022/04/12 04:23:23;;;;;;;22.92;10.73;;;;;;;4.49;69.06;96121.19;5024955;28;20053;-76
2022/04/12 04:25:50;;;;;;;20.65;10.23;;;;;;;4.47;68.95;96128.75;5025817;28;20419;-77
2022/04/12 04:28:21;;;;;;;25.48;10.98;;;;;;;4.44;69.02;96122.88;5025158;28;20058;-77
2022/04/12 04:30:49;;;;;;;24.02;10.63;;;;;;;4.44;69.08;96124.75;5025703;28;20148;-75
2022/04/12 04:33:18;;;;;;;24.40;11.43;;;;;;;4.42;69.23;96133.09;5025167;28;20470;-77
2022/04/12 04:35:45;;;;;;;21.98;10.00;;;;;;;4.40;69.55;96132.59;5026059;28;20573;-77
2022/04/12 04:38:12;;;;;;;23.55;11.57;;;;;;;4.39;69.48;96133.69;5024419;28;20056;-75
2022/04/12 04:40:39;;;;;;;22.38;11.00;;;;;;;4.40;69.96;96140.69;5025420;28;20771;-76
2022/04/12 04:43:06;;;;;;;20.85;10.88;;;;;;;4.42;70.45;96143.09;5024924;28;20064;-76
2022/04/12 04:45:33;;;;;;;24.70;12.68;;;;;;;4.43;69.95;96142.81;5026754;28;20139;-77
2022/04/12 04:48:01;;;;;;;24.92;11.40;;;;;;;4.47;69.59;96136.84;5027667;28;20052;-77
2022/04/12 04:50:31;;;;;;;23.00;11.32;;;;;;;4.48;69.11;96155.44;5044221;28;20047;-76
2022/04/12 04:52:59;;;;;;;26.73;11.75;;;;;;;4.48;69.23;96149.25;5045817;28;20044;-79
2022/04/12 04:55:26;;;;;;;27.02;12.43;;;;;;;4.47;69.10;96153.03;5044492;28;20056;-76
2022/04/12 04:57:55;;;;;;;27.23;13.30;;;;;;;4.50;69.49;96155.16;5045682;28;20625;-79
2022/04/12 05:00:25;;;;;;;27.33;13.55;;;;;;;4.50;69.77;96149.78;5043999;28;20072;-77
2022/04/12 05:02:54;;;;;;;23.75;11.02;;;;;;;4.48;69.58;96143.84;5045449;28;20499;-79
2022/04/12 05:05:21;;;;;;;23.67;11.27;;;;;;;4.47;69.32;96136.84;5044100;28;20048;-78
2022/04/12 05:07:50;;;;;;;22.05;10.70;;;;;;;4.48;69.15;96139.25;5045123;28;20064;-78
2022/04/12 05:10:19;;;;;;;20.92;10.50;;;;;;;4.51;69.26;96141.41;5044382;28;20058;-78
2022/04/12 05:12:46;;;;;;;22.33;11.02;;;;;;;4.50;68.93;96142.50;5044949;28;20122;-77
2022/04/12 05:15:13;;;;;;;23.73;10.70;;;;;;;4.52;68.74;96136.81;5044388;28;20048;-77
2022/04/12 05:17:39;;;;;;;30.35;12.73;;;;;;;4.56;68.25;96143.25;5042792;28;20606;-77
2022/04/12 05:20:07;;;;;;;26.05;12.20;;;;;;;4.60;68.67;96137.00;5044707;28;20052;-76
2022/04/12 05:22:34;;;;;;;29.27;10.90;;;;;;;4.66;68.57;96138.56;5044256;28;20068;-77
2022/04/12 05:25:02;;;;;;;20.42;9.68;;;;;;;4.68;67.76;96130.16;5045325;28;20052;-77
2022/04/12 05:27:31;;;;;;;20.05;9.68;;;;;;;4.71;67.22;96137.69;5044701;28;20041;-77
2022/04/12 05:29:58;;;;;;;21.05;9.75;;;;;;;4.77;66.96;96139.25;5044569;28;20057;-78
2022/04/12 05:32:25;;;;;;;20.30;9.65;;;;;;;4.82;66.68;96152.69;5044298;28;20056;-76
2022/04/12 05:34:52;;;;;;;23.80;10.98;;;;;;;4.88;66.02;96140.75;5044518;28;20052;-79
2022/04/12 05:37:18;;;;;;;26.50;11.05;;;;;;;4.94;66.48;96149.59;5044476;28;20463;-78
2022/04/12 05:39:45;;;;;;;22.67;9.52;;;;;;;4.96;66.22;96159.00;5044535;28;20049;-76
2022/04/12 05:42:13;;;;;;;19.08;8.82;;;;;;;5.01;65.21;96155.44;5044396;28;20049;-77
2022/04/12 05:44:39;;;;;;;18.33;8.80;;;;;;;5.04;64.69;96159.47;5048246;28;20049;-76
2022/04/12 05:47:10;;;;;;;24.20;9.13;;;;;;;5.05;64.80;96161.88;5037879;28;20254;-76
2022/04/12 05:49:37;;;;;;;35.63;9.55;;;;;;;5.11;64.69;96162.63;5028771;28;20057;-77
2022/04/12 05:52:04;;;;;;;23.98;9.45;;;;;;;5.14;64.93;96162.84;5028118;28;20135;-76
2022/04/12 05:54:31;;;;;;;24.40;8.32;;;;;;;5.20;64.99;96159.00;5028814;28;20065;-76
2022/04/12 05:56:57;;;;;;;17.52;8.38;;;;;;;5.27;64.73;96172.13;5028358;28;20048;-77
2022/04/12 05:59:25;;;;;;;20.83;8.55;;;;;;;5.34;64.86;96163.72;5028108;28;20045;-76
2022/04/12 06:01:51;;;;;;;19.95;8.20;;;;;;;5.39;64.65;96159.03;5027972;28;20057;-79
2022/04/12 06:04:18;;;;;;;20.08;8.68;;;;;;;5.44;64.89;96164.38;5028440;28;20527;-76
2022/04/12 06:06:44;;;;;;;20.95;7.80;;;;;;;5.53;64.82;96163.72;5027899;28;20049;-76
2022/04/12 06:09:11;;;;;;;15.98;7.50;;;;;;;5.61;64.94;96163.09;5028707;28;20052;-79
2022/04/12 06:11:37;;;;;;;34.17;9.05;;;;;;;5.65;64.60;96169.53;5027749;28;20049;-76
2022/04/12 06:14:04;;;;;;;21.17;8.27;;;;;;;5.72;64.74;96168.06;5028434;28;20659;-77
2022/04/12 06:16:32;;;;;;;16.67;7.82;;;;;;;5.82;64.63;96159.00;5031138;28;20064;-80
2022/04/12 06:18:59;;;;;;;20.13;7.95;;;;;;;5.92;64.58;96164.31;5027935;28;20053;-76
2022/04/12 06:21:25;;;;;;;17.67;8.15;;;;;;;5.99;64.21;96170.13;5027484;28;20301;-76
2022/04/12 06:23:52;;;;;;;23.02;9.27;;;;;;;6.04;64.09;96160.34;5028208;28;20049;-79
2022/04/12 06:26:18;;;;;;;20.42;8.63;;;;;;;6.10;64.11;96164.56;5028037;28;20053;-78
2022/04/12 06:28:45;;;;;;;20.45;8.45;;;;;;;6.18;64.39;96161.22;5029585;28;20522;-76
2022/04/12 06:31:11;;;;;;;21.45;9.18;;;;;;;6.26;64.70;96164.06;5047808;28;20049;-77
2022/04/12 06:33:39;;;;;;;23.20;8.60;;;;;;;6.33;64.11;96163.69;5047579;28;20144;-78
2022/04/12 06:36:06;;;;;;;20.15;8.85;;;;;;;6.44;64.25;96170.53;5047889;28;20493;-77
2022/04/12 06:38:33;;;;;;;16.77;8.55;;;;;;;6.51;64.69;96165.53;5047740;28;20056;-76
2022/04/12 06:41:00;;;;;;;18.52;9.25;;;;;;;6.61;64.91;96152.94;5047890;28;20069;-76
2022/04/12 06:43:26;;;;;;;20.67;8.52;;;;;;;6.76;65.06;96166.19;5047743;28;20057;-79
2022/04/12 06:45:53;;;;;;;21.67;9.18;;;;;;;6.91;63.98;96173.25;5043504;28;20463;-78
2022/04/12 06:48:19;;;;;;;17.08;8.70;;;;;;;6.98;64.02;96166.31;5027940;28;20053;-78
2022/04/12 06:50:47;;;;;;;18.52;9.32;;;;;;;7.06;63.99;96171.06;5027345;28;20583;-77
2022/04/12 06:53:13;;;;;;;18.10;8.00;;;;;;;7.23;64.14;96169.66;5027839;28;20052;-78
2022/04/12 06:55:40;;;;;;;16.65;7.93;;;;;;;7.38;64.31;96161.22;5025996;28;20057;-77
2022/04/12 06:58:06;;;;;;;17.48;8.05;;;;;;;7.53;62.83;96169.03;5027883;28;20057;-77
2022/04/12 07:00:33;;;;;;;16.05;8.50;;;;;;;7.64;63.28;96164.22;5026777;28;20508;-78
2022/04/12 07:03:00;;;;;;;16.20;8.32;;;;;;;7.75;62.40;96172.94;5027764;28;20075;-79
2022/04/12 07:05:26;;;;;;;16.70;8.57;;;;;;;7.85;63.37;96170.00;5027136;28;20045;-77
2022/04/12 07:07:54;;;;;;;18.73;8.57;;;;;;;7.96;62.66;96159.72;5027696;28;20058;-78
2022/04/12 07:10:21;;;;;;;16.60;7.45;;;;;;;8.01;61.21;96157.69;5027070;28;20051;-77
2022/04/12 07:12:53;;;;;;;23.02;9.13;;;;;;;8.10;61.90;96158.59;5027431;28;20620;-78
2022/04/12 07:15:20;;;;;;;18.80;7.78;;;;;;;8.25;61.66;96159.34;5027341;28;20053;-77
2022/04/12 07:17:46;;;;;;;23.48;8.77;;;;;;;8.39;61.90;96168.22;5029477;28;20050;-77
2022/04/12 07:20:13;;;;;;;11.45;6.85;;;;;;;8.52;60.69;96161.97;5027363;28;20071;-77
2022/04/12 07:22:40;;;;;;;15.25;7.72;;;;;;;8.67;60.02;96154.56;5026851;28;20053;-78
2022/04/12 07:25:09;;;;;;;14.52;7.55;;;;;;;8.84;59.97;96157.34;5027916;28;20060;-77
2022/04/12 07:27:37;;;;;;;13.02;7.20;;;;;;;9.04;59.01;96161.44;5027352;28;20080;-77
2022/04/12 07:30:05;;;;;;;15.90;7.65;;;;;;;9.74;60.35;96167.91;5026629;28;20166;-77
2022/04/12 07:32:32;;;;;;;14.05;7.03;;;;;;;10.84;55.91;96177.56;5027136;28;20049;-78
2022/04/12 07:34:58;;;;;;;16.23;7.38;;;;;;;11.95;53.09;96180.97;5027211;28;20053;-77
2022/04/12 07:37:25;;;;;;;16.70;7.50;;;;;;;13.03;51.96;96174.75;5027106;28;20049;-73
2022/04/12 07:39:51;;;;;;;10.18;6.28;;;;;;;13.93;48.50;96170.28;5026100;28;20076;-73
2022/04/12 07:42:20;;;;;;;18.23;6.90;;;;;;;14.69;46.00;96185.91;5026960;28;20080;-73
2022/04/12 07:44:46;;;;;;;10.55;5.70;;;;;;;15.43;45.15;96185.53;5026340;28;20847;-74
2022/04/12 07:47:13;;;;;;;8.18;5.32;;;;;;;16.06;41.63;96180.03;5025905;28;20046;-73
2022/04/12 07:49:39;;;;;;;10.45;5.03;;;;;;;16.62;40.38;96185.19;5026313;28;20056;-73
2022/04/12 07:52:07;;;;;;;10.85;4.47;;;;;;;17.08;40.05;96179.84;5026719;28;20061;-74
2022/04/12 07:54:34;;;;;;;9.05;4.68;;;;;;;17.69;38.47;96179.75;5026544;28;20046;-73
2022/04/12 07:57:00;;;;;;;19.13;6.35;;;;;;;18.09;38.43;96183.16;5026599;28;20435;-73
2022/04/12 07:59:28;;;;;;;15.27;6.00;;;;;;;18.55;35.84;96177.50;5024525;28;20056;-75
2022/04/12 08:01:55;;;;;;;15.15;6.20;;;;;;;18.59;34.93;96179.16;5025701;28;20061;-74
2022/04/12 08:04:21;;;;;;;11.40;5.30;;;;;;;18.67;35.73;96174.50;5026254;28;20049;-75
2022/04/12 08:06:48;;;;;;;16.13;5.25;;;;;;;18.78;37.29;96175.47;5025528;28;20123;-74
2022/04/12 08:09:14;;;;;;;12.68;5.13;;;;;;;18.99;34.42;96177.69;5044868;28;20559;-75
2022/04/12 08:11:41;;;;;;;14.90;5.20;;;;;;;19.22;34.68;96169.28;5045561;28;20048;-74
2022/04/12 08:14:07;;;;;;;12.27;5.40;;;;;;;19.27;33.84;96168.94;5046437;28;20052;-74
2022/04/12 08:16:35;;;;;;;8.15;4.50;;;;;;;19.37;34.95;96165.50;5046086;28;20052;-75
2022/04/12 08:19:02;;;;;;;10.95;5.55;;;;;;;19.73;33.09;96158.34;5045983;28;20537;-76
2022/04/12 08:21:33;;;;;;;13.80;5.25;;;;;;;20.11;34.25;96166.53;5046097;28;20051;-75
2022/04/12 08:24:00;;;;;;;8.35;5.38;;;;;;;20.43;32.85;96167.53;5046088;28;20056;-74
2022/04/12 08:26:26;;;;;;;7.93;4.53;;;;;;;20.85;32.18;96166.16;5046125;28;20049;-75
2022/04/12 08:28:53;;;;;;;7.43;4.90;;;;;;;21.13;30.76;96161.91;5045692;28;20509;-72
2022/04/12 08:31:19;;;;;;;7.00;4.68;;;;;;;21.33;31.52;96149.34;5045992;28;20052;-73
2022/04/12 08:33:47;;;;;;;9.00;4.40;;;;;;;21.74;31.13;96154.53;5045248;28;20717;-73
2022/04/12 08:36:16;;;;;;;8.80;4.45;;;;;;;22.10;32.83;96149.75;5045958;28;20052;-72
2022/04/12 08:38:44;;;;;;;5.80;3.97;;;;;;;22.18;30.29;96151.34;5045783;28;20072;-74
2022/04/12 08:41:11;;;;;;;11.43;5.32;;;;;;;22.26;30.35;96143.81;5045059;28;20530;-73
2022/04/12 08:43:40;;;;;;;15.05;5.35;;;;;;;22.51;30.58;96144.56;5045738;28;20060;-74
2022/04/12 08:46:09;;;;;;;16.77;5.85;;;;;;;22.64;30.11;96145.69;5045081;28;20049;-73
2022/04/12 08:48:36;;;;;;;11.80;5.15;;;;;;;22.66;29.80;96148.88;5045982;28;20049;-73
2022/04/12 08:51:04;;;;;;;15.32;5.53;;;;;;;22.87;30.66;96142.44;5044204;28;20057;-73
2022/04/12 08:53:32;;;;;;;11.25;4.90;;;;;;;23.08;28.86;96149.91;5045995;28;20041;-73
2022/04/12 08:55:59;;;;;;;10.02;5.03;;;;;;;23.36;30.91;96151.75;5045063;28;20049;-73
2022/04/12 08:58:27;;;;;;;20.77;5.55;;;;;;;23.47;28.79;96146.09;5045688;28;20049;-74
2022/04/12 09:00:53;;;;;;;11.40;4.28;;;;;;;23.28;27.54;96139.06;5044906;28;20052;-73
2022/04/12 09:03:20;;;;;;;12.00;5.18;;;;;;;22.90;28.44;96133.31;5045254;28;20072;-74
2022/04/12 09:05:46;;;;;;;18.23;5.50;;;;;;;22.56;29.24;96121.94;5045176;28;20045;-73
2022/04/12 09:08:33;;;;;;;13.70;4.93;;;;;;;22.11;32.61;96123.63;5044648;28;20041;-73
2022/04/12 09:11:02;;;;;;;11.48;5.05;;;;;;;21.97;30.04;96124.41;5038232;28;20053;-74
2022/04/12 09:13:29;;;;;;;17.20;5.45;;;;;;;21.82;30.45;96128.38;5036516;28;20037;-75
2022/04/12 09:15:57;;;;;;;12.90;4.80;;;;;;;21.67;30.72;96126.81;5045347;28;20053;-74
2022/04/12 09:18:35;;;;;;;8.95;4.38;;;;;;;21.46;30.86;96125.63;5043585;28;20049;-74
2022/04/12 09:21:15;;;;;;;11.00;4.93;;;;;;;21.51;30.35;96122.47;5044464;28;20616;-73
2022/04/12 09:23:45;;;;;;;10.43;4.70;;;;;;;21.45;31.16;96124.00;5044856;28;20049;-73
2022/04/12 09:26:16;;;;;;;15.63;5.70;;;;;;;21.43;31.88;96129.16;5044638;28;20060;-73
2022/04/12 09:28:44;;;;;;;9.88;4.47;;;;;;;21.43;31.33;96123.63;5045734;28;20099;-72
2022/04/12 09:31:12;;;;;;;14.00;5.13;;;;;;;21.30;32.85;96117.69;5044176;28;20045;-74
2022/04/12 09:33:39;;;;;;;10.23;4.65;;;;;;;21.09;30.56;96120.38;5045853;28;20072;-73
2022/04/12 09:36:06;;;;;;;10.98;4.68;;;;;;;20.98;31.21;96125.88;5044382;28;20664;-73
2022/04/12 09:38:34;;;;;;;15.75;5.32;;;;;;;20.88;31.67;96123.88;5045528;28;20048;-72
2022/04/12 09:41:20;;;;;;;9.38;4.35;;;;;;;20.83;31.32;96118.72;5044444;28;20049;-72
2022/04/12 09:43:59;;;;;;;12.05;4.65;;;;;;;20.67;32.45;96126.56;5044681;28;20045;-73
2022/04/12 09:46:27;;;;;;;17.85;4.68;;;;;;;20.51;32.58;96115.81;5044372;28;20053;-72
2022/04/12 09:48:54;;;;;;;13.02;5.60;;;;;;;20.65;32.65;96120.63;5044279;28;20055;-73
2022/04/12 09:51:23;;;;;;;11.68;4.75;;;;;;;20.75;32.62;96117.09;5044822;28;20053;-73
2022/04/12 09:53:50;;;;;;;11.55;4.63;;;;;;;20.76;32.17;96107.63;5044496;28;20053;-73
2022/04/12 09:56:21;;;;;;;9.50;4.55;;;;;;;20.90;33.80;96104.13;5044657;28;20049;-73
2022/04/12 09:58:49;;;;;;;10.43;4.30;;;;;;;21.00;32.71;96090.31;5044315;28;20064;-73
2022/04/12 10:01:18;;;;;;;13.23;5.47;;;;;;;21.01;31.10;96091.88;5036055;28;20053;-74
2022/04/12 10:03:47;;;;;;;12.35;5.05;;;;;;;20.84;32.13;96092.63;5044403;28;20049;-73
2022/04/12 10:06:17;;;;;;;12.55;5.72;;;;;;;20.81;30.92;96088.66;5043802;28;20056;-73
2022/04/12 10:08:44;;;;;;;12.35;4.45;;;;;;;20.75;31.17;96092.22;5045015;28;20415;-74
2022/04/12 10:11:13;;;;;;;18.55;4.80;;;;;;;20.58;31.54;96080.69;5043633;28;20076;-73
2022/04/12 10:13:41;;;;;;;11.30;4.13;;;;;;;20.64;32.04;96078.34;5044969;28;20061;-73
2022/04/12 10:16:09;;;;;;;12.68;4.82;;;;;;;20.51;33.36;96080.66;5040814;28;20060;-73
2022/04/12 10:18:35;;;;;;;12.95;5.28;;;;;;;20.56;31.31;96082.25;5024607;28;20077;-73
2022/04/12 10:21:04;;;;;;;10.55;4.40;;;;;;;20.58;31.76;96074.38;5023299;28;20049;-74
2022/04/12 10:23:31;;;;;;;14.32;5.00;;;;;;;20.66;32.35;96075.16;5024143;28;20492;-74
2022/04/12 10:25:59;;;;;;;13.05;4.78;;;;;;;20.79;33.44;96057.03;5024571;28;20053;-73
2022/04/12 10:28:27;;;;;;;13.80;5.13;;;;;;;20.82;31.16;96061.78;5023693;28;20048;-74
2022/04/12 10:31:04;;;;;;;12.57;4.68;;;;;;;20.89;31.42;96056.28;5027851;28;20060;-75
2022/04/12 10:33:30;;;;;;;15.63;5.00;;;;;;;20.86;30.18;96059.81;5027134;28;20099;-74
2022/04/12 10:35:59;;;;;;;11.07;4.53;;;;;;;20.72;30.46;96054.25;5028399;28;20053;-74
2022/04/12 10:38:27;;;;;;;9.88;3.83;;;;;;;20.38;30.17;96065.56;5026703;28;20057;-74
2022/04/12 10:40:56;;;;;;;11.15;4.32;;;;;;;20.40;32.09;96054.91;5027778;28;20762;-74
2022/04/12 10:43:24;;;;;;;9.55;3.58;;;;;;;20.43;31.28;96056.91;5027106;28;20049;-73
2022/04/12 10:45:52;;;;;;;12.50;4.85;;;;;;;20.38;32.02;96043.44;5027125;28;20061;-73
2022/04/12 10:48:21;;;;;;;8.30;3.60;;;;;;;20.33;30.61;96043.81;5007804;28;20054;-73
2022/04/12 10:50:50;;;;;;;18.92;4.97;;;;;;;20.31;32.24;96043.41;5007417;28;20050;-73
2022/04/12 10:53:56;;;;;;;9.70;3.63;;;;;;;20.34;33.13;96042.63;5007920;28;20477;-73
2022/04/12 10:56:25;;;;;;;10.63;3.85;;;;;;;20.25;32.38;96031.91;5006700;28;20515;-74
2022/04/12 10:58:52;;;;;;;13.65;4.55;;;;;;;20.28;31.86;96038.66;5007405;28;20085;-74
2022/04/12 11:01:30;;;;;;;11.15;3.83;;;;;;;20.47;31.70;96034.81;5006683;28;20045;-76
2022/04/12 11:04:00;;;;;;;14.27;4.75;;;;;;;20.55;31.85;96028.91;5007457;28;20061;-73
2022/04/12 11:06:28;;;;;;;11.95;4.50;;;;;;;20.69;30.39;96030.13;5023220;28;20048;-73
2022/04/12 11:08:56;;;;;;;16.33;5.22;;;;;;;20.77;29.64;96026.97;5026572;28;20401;-73
2022/04/12 11:11:26;;;;;;;9.02;3.42;;;;;;;20.78;29.27;96027.78;5026936;28;20052;-73
2022/04/12 11:13:54;;;;;;;12.35;4.20;;;;;;;20.67;28.44;96033.28;5026687;28;20073;-73
2022/04/12 11:16:25;;;;;;;12.98;4.65;;;;;;;20.64;29.10;96034.06;5026720;28;20064;-73
2022/04/12 11:18:52;;;;;;;16.67;4.13;;;;;;;20.62;29.81;96025.38;5026517;28;20053;-71
2022/04/12 11:21:22;;;;;;;14.05;3.97;;;;;;;20.73;29.01;96025.41;5026406;28;20053;-72
2022/04/12 11:23:51;;;;;;;10.02;3.88;;;;;;;20.75;28.67;96028.56;5026758;28;20809;-73
2022/04/12 11:26:37;;;;;;;14.77;4.57;;;;;;;20.98;29.11;96019.91;5026182;28;20404;-73
2022/04/12 11:29:07;;;;;;;12.13;4.03;;;;;;;20.95;28.80;96024.25;5026676;28;20076;-76
2022/04/12 11:31:36;;;;;;;10.07;4.30;;;;;;;21.00;28.75;96026.63;5026295;28;20076;-73
2022/04/12 11:34:03;;;;;;;10.05;3.95;;;;;;;21.06;28.70;96019.53;5026820;28;20050;-74